Three Forks, Montana
Current Conditions -  °F | °C
As of 12:56 PM on Monday 26 Jan 2015 (Local Time) from KBZN Reporting Station
Clear Clear  
Wind Chill: 46°   Ceiling: Unl
Heat Index: 46°   Visibility: 10mi
Dew Point: 31°   Wind: 3mph
Humidity: 56%   Direction: 200°SSW
Pressure: 30.16"   Gusts: NA
Location:  45.89°N, 111.55°W
Report Text: KBZN 261956Z 20003KT 10SM CLR 08/M01 A3016 RMK AO2 SLP227 T00781006
Loading
Personal Weather Stations






























Interactive Weather Map New forecast layout! Learn more

10-Day Weather Forecast

Advertisements
Track Severe Weather on mobile